createdAt,value
2023-04-17T00:01:15.864Z,25.00
2023-04-17T00:03:44.864Z,21.20
2023-04-17T00:06:14.007Z,23.60
2023-04-17T00:08:43.427Z,4.90
2023-04-17T00:11:11.028Z,4.40
2023-04-17T00:13:41.449Z,7.50
2023-04-17T00:16:11.495Z,8.90
2023-04-17T00:18:39.642Z,9.40
2023-04-17T00:21:07.285Z,20.70
2023-04-17T00:23:35.286Z,49.20
2023-04-17T00:26:02.912Z,75.70
2023-04-17T00:28:30.490Z,99.90
2023-04-17T00:30:58.850Z,99.90
2023-04-17T00:33:26.425Z,99.90
2023-04-17T00:35:53.988Z,99.90
2023-04-17T00:38:21.635Z,99.90
2023-04-17T00:40:51.460Z,99.90
2023-04-17T00:43:19.234Z,99.90
2023-04-17T00:45:48.103Z,99.90
2023-04-17T00:48:17.889Z,99.90
2023-04-17T00:50:45.884Z,99.90
2023-04-17T00:53:14.459Z,99.90
2023-04-17T00:55:44.592Z,99.90
2023-04-17T00:58:12.245Z,99.90
2023-04-17T01:00:39.885Z,99.90
2023-04-17T01:03:08.478Z,99.90
2023-04-17T01:05:38.195Z,99.90
2023-04-17T01:08:05.833Z,99.90
2023-04-17T01:10:33.455Z,99.90
2023-04-17T01:13:05.851Z,99.90
2023-04-17T01:15:34.368Z,99.90
2023-04-17T01:18:06.065Z,99.90
2023-04-17T01:20:34.151Z,99.90
2023-04-17T01:23:02.094Z,99.90
2023-04-17T01:25:29.876Z,99.90
2023-04-17T01:27:57.586Z,99.90
2023-04-17T01:30:28.497Z,99.90
2023-04-17T01:32:56.301Z,99.90
2023-04-17T01:35:23.949Z,99.90
2023-04-17T01:37:52.106Z,99.90
2023-04-17T01:40:19.744Z,99.90
2023-04-17T01:42:47.400Z,99.90
2023-04-17T01:45:15.561Z,99.90
2023-04-17T01:47:43.284Z,99.90
2023-04-17T01:50:11.518Z,99.90
2023-04-17T01:52:39.960Z,99.90
2023-04-17T01:55:07.891Z,99.90
2023-04-17T01:57:35.551Z,99.90
2023-04-17T02:00:07.156Z,99.90
2023-04-17T02:02:34.813Z,99.90
2023-04-17T02:05:02.828Z,99.90
2023-04-17T02:07:30.411Z,99.90
2023-04-17T02:09:58.004Z,99.90
2023-04-17T02:12:25.583Z,99.90
2023-04-17T02:14:53.242Z,99.90
2023-04-17T02:17:20.983Z,99.90
2023-04-17T02:19:51.084Z,99.90
2023-04-17T02:22:18.757Z,99.90
2023-04-17T02:24:46.343Z,99.90
2023-04-17T02:27:13.983Z,99.90
2023-04-17T02:29:41.588Z,99.90
2023-04-17T02:32:09.147Z,99.90
2023-04-17T02:34:36.908Z,99.90
2023-04-17T02:37:04.459Z,99.90
2023-04-17T02:39:35.241Z,99.90
2023-04-17T02:42:03.083Z,99.90
2023-04-17T02:44:30.772Z,99.90
2023-04-17T02:46:58.478Z,99.90
2023-04-17T02:49:26.110Z,99.90
2023-04-17T02:51:53.799Z,99.90
2023-04-17T02:54:21.545Z,99.90
2023-04-17T02:56:52.991Z,99.90
2023-04-17T02:59:20.721Z,99.90
2023-04-17T03:01:48.352Z,99.90
2023-04-17T03:04:19.570Z,99.90
2023-04-17T03:06:50.114Z,99.90
2023-04-17T03:09:18.257Z,99.90
2023-04-17T03:11:48.235Z,99.90
2023-04-17T03:14:15.912Z,99.90
2023-04-17T03:16:46.846Z,99.90
2023-04-17T03:19:14.586Z,99.90
2023-04-17T03:21:42.225Z,99.90
2023-04-17T03:24:11.592Z,99.90
2023-04-17T03:26:39.316Z,99.90
2023-04-17T03:29:06.943Z,99.90
2023-04-17T03:31:34.566Z,99.90
2023-04-17T03:34:02.210Z,99.90
2023-04-17T03:36:29.793Z,99.90
2023-04-17T03:38:57.782Z,99.90
2023-04-17T03:41:25.503Z,99.90
2023-04-17T03:43:53.244Z,99.90
2023-04-17T03:46:21.267Z,99.90
2023-04-17T03:48:48.891Z,99.90
2023-04-17T03:51:17.004Z,99.90
2023-04-17T03:53:44.627Z,99.90
2023-04-17T03:56:12.712Z,99.90
2023-04-17T03:58:40.484Z,99.90
2023-04-17T04:01:10.638Z,99.90
2023-04-17T04:03:38.638Z,99.90
2023-04-17T04:06:07.392Z,99.90
2023-04-17T04:08:35.019Z,99.90
2023-04-17T04:11:03.368Z,99.90
2023-04-17T04:13:31.253Z,99.90
2023-04-17T04:15:58.880Z,99.90
2023-04-17T04:18:26.495Z,99.90
2023-04-17T04:20:54.260Z,99.90
2023-04-17T04:23:21.879Z,99.90
2023-04-17T04:25:49.733Z,99.90
2023-04-17T04:28:23.307Z,99.90
2023-04-17T04:30:53.046Z,99.90
2023-04-17T04:33:21.119Z,99.90
2023-04-17T04:35:51.814Z,99.90
2023-04-17T04:38:20.073Z,99.90
2023-04-17T04:40:52.433Z,99.90
2023-04-17T04:43:22.286Z,99.90
2023-04-17T04:45:50.332Z,99.90
2023-04-17T04:48:17.941Z,99.90
2023-04-17T04:50:45.529Z,99.90
2023-04-17T04:53:13.112Z,99.90
2023-04-17T04:55:40.812Z,99.90
2023-04-17T04:58:09.552Z,99.90
2023-04-17T05:00:39.907Z,99.90
2023-04-17T05:03:08.123Z,99.90
2023-04-17T05:05:35.978Z,99.90
2023-04-17T05:08:03.651Z,99.90
2023-04-17T05:10:31.818Z,99.90
2023-04-17T05:12:59.468Z,99.90
2023-04-17T05:15:27.942Z,99.90
2023-04-17T05:17:56.064Z,99.90
2023-04-17T05:20:23.795Z,99.90
2023-04-17T05:22:51.544Z,99.90
2023-04-17T05:25:23.566Z,99.90
2023-04-17T05:27:53.570Z,99.90
2023-04-17T05:30:24.275Z,99.90
2023-04-17T05:32:53.839Z,99.90
2023-04-17T05:35:21.623Z,99.90
2023-04-17T05:37:49.710Z,99.90
2023-04-17T05:40:17.372Z,99.90
2023-04-17T05:42:45.015Z,99.90
2023-04-17T05:45:13.962Z,99.90
2023-04-17T05:47:42.136Z,99.90
2023-04-17T05:50:11.510Z,99.90
2023-04-17T05:52:39.738Z,99.90
2023-04-17T05:55:07.998Z,99.90
2023-04-17T05:57:35.586Z,99.90
2023-04-17T06:00:10.174Z,99.90
2023-04-17T06:02:38.105Z,99.90
2023-04-17T06:05:07.120Z,99.90
2023-04-17T06:07:35.371Z,99.90
2023-04-17T06:10:03.144Z,99.90
2023-04-17T06:12:30.830Z,99.90
2023-04-17T06:14:58.406Z,99.90
2023-04-17T06:17:25.985Z,99.90
2023-04-17T06:19:53.571Z,99.90
2023-04-17T06:22:21.286Z,99.90
2023-04-17T06:24:48.954Z,99.90
2023-04-17T06:27:16.592Z,99.90
2023-04-17T06:29:44.165Z,99.90
2023-04-17T06:32:11.781Z,99.90
2023-04-17T06:34:52.263Z,99.90
2023-04-17T06:37:26.021Z,99.90
2023-04-17T06:39:53.664Z,99.90
2023-04-17T06:42:21.277Z,99.90
2023-04-17T06:44:48.854Z,99.90
2023-04-17T06:47:16.433Z,99.90
2023-04-17T06:49:43.954Z,99.90
2023-04-17T06:52:11.776Z,99.90
2023-04-17T06:54:39.399Z,99.90
2023-04-17T06:57:10.528Z,99.90
2023-04-17T06:59:38.795Z,99.90
2023-04-17T07:02:06.481Z,99.90
2023-04-17T07:04:34.186Z,99.90
2023-04-17T07:07:01.858Z,99.90
2023-04-17T07:09:29.453Z,99.90
2023-04-17T07:11:57.047Z,93.00
2023-04-17T07:14:24.770Z,99.90
2023-04-17T07:16:52.383Z,60.40
2023-04-17T07:19:20.264Z,74.40
2023-04-17T07:21:47.924Z,92.00
2023-04-17T07:24:15.584Z,99.90
2023-04-17T07:26:43.314Z,99.90
2023-04-17T07:29:11.154Z,99.90
2023-04-17T07:31:39.199Z,99.90
2023-04-17T07:34:09.979Z,99.90
2023-04-17T07:36:37.707Z,87.50
2023-04-17T07:39:07.152Z,92.10
2023-04-17T07:41:34.829Z,97.20
2023-04-17T07:44:06.534Z,99.90
2023-04-17T07:46:34.197Z,99.90
2023-04-17T07:49:01.886Z,99.20
2023-04-17T07:51:31.471Z,97.40
2023-04-17T07:53:59.062Z,75.70
2023-04-17T07:56:28.237Z,49.60
2023-04-17T07:58:56.455Z,29.50
2023-04-17T08:01:24.177Z,19.10
2023-04-17T08:03:52.914Z,2.10
2023-04-17T08:06:20.820Z,1.00
2023-04-17T08:08:52.152Z,1.00
2023-04-17T08:11:20.497Z,1.00
2023-04-17T08:13:48.141Z,1.00
2023-04-17T08:16:15.771Z,1.00
2023-04-17T08:18:43.460Z,1.00
2023-04-17T08:21:11.251Z,1.00
2023-04-17T08:23:40.824Z,1.00
2023-04-17T08:26:08.398Z,99.90
2023-04-17T08:28:35.960Z,1.00
2023-04-17T08:31:03.678Z,99.90
2023-04-17T08:33:31.637Z,1.00
2023-04-17T08:36:00.258Z,1.00
2023-04-17T08:38:31.085Z,13.60
2023-04-17T08:41:02.912Z,1.00
2023-04-17T08:43:36.066Z,1.00
2023-04-17T08:46:04.079Z,1.00
2023-04-17T08:48:31.822Z,99.90
2023-04-17T08:50:59.520Z,99.90
2023-04-17T08:53:27.062Z,85.90
2023-04-17T08:55:54.633Z,99.90
2023-04-17T08:58:28.475Z,1.00
